Governador Jorge Teixeira de Oliveira Airport
SBPV : now visible

Airfield :











YOU CAN JOIN US ON...

 
LOGIN :

Register | Disclaimer

   EN    FR    IT 

 









Legend :    VFR   Marginal VFR   IFR   Intensive IFR   Very Intensive IFR
Visi :
Ceiling :
>= 8 km
>= 3000ft
5 to 8 km
1000 to 3000 ft
1500m to 5 km
500 to 1000 ft
800 to 1500m
200 to 500 ft
< 800m
< 200 ft
Symbols :   Thunderstorms  Fog  Heavy snow  Heavy precipitations  Wind > 20 kt






- Airport Elevation : 290 ft
- IATA code : PVH


SBPV - Governador Jorge Teixeira de Oliveira

CURRENT METAR :
  • 202100Z 18005KT 9999 VCSH SCT030 FEW035TCU SCT100 30/23 Q1006

EXPIRED METARs :
  • 202000Z 21003KT 9999 VCSH SCT025 FEW030TCU 31/25 Q1006
  • 201900Z 20007KT 9999 3000S -RA SCT025 FEW030TCU 28/24 Q1007

TAF TAF SBPV
Valid from the 20 at 18:00 until the 21 at 18:00 UTC


201500Z 2018/2118 35005KT 9999 SCT010 TX26/2019Z TN24/2109Z
PROB30
TEMPO 2019/2022 36015KT 5000 TSRA BKN025 FEW030CB
BECMG 2100/2103 05005KT SCT030
PROB30 2106/2110 0800 FG BKN002
PROB30
TEMPO 2112/2118 34005KT 6000 SHRA BKN012 FEW035TCU RMK PGY



MET'MAP, your aeronautical weather chart ! - Copyright ORBIFLY December 2007 - Disclaimer

ORBIFLY MET'MAP TEAM :

Programming & Development : Alexandra Zaïnal
Concept & original design : Baudouin d'Aumeries
Assistance for programming : Marc-Olivier Méhu
Technical & hardware support : Manuel Goepfert

Contact : metmap@orbifly.com




SOURCES & CREDITS :

   NOAA       Earth
Advisory